Time;durP1;ratioP1;P1;durP2;ratioP2;P2;SDS_P1;SDS_P2;PMS_P1;PMS_P2;Temp;Humidity;BMP_temperature;BMP_pressure;BME280_temperature;BME280_humidity;BME280_pressure;Samples;Min_cycle;Max_cycle;Signal;HPM_P1;HPM_P2
2023/08/31 00:00:09;;;;;;;3.53;3.23;;;;;;;;;;5041243;28;20233;-85
2023/08/31 00:02:39;;;;;;;5.40;3.30;;;;;;;;;;5040807;28;20207;-84
2023/08/31 00:05:06;;;;;;;3.37;3.07;;;;;;;;;;5047052;28;20230;-85
2023/08/31 00:07:33;;;;;;;3.90;3.07;;;;;;;;;;5046194;28;20332;-84
2023/08/31 00:10:06;;;;;;;5.27;3.17;;;;;;;;;;5036787;28;20199;-85
2023/08/31 00:12:33;;;;;;;3.93;2.97;;;;;;;;;;5048840;28;20217;-84
2023/08/31 00:15:00;;;;;;;3.60;3.30;;;;;;;;;;5041271;28;20195;-85
2023/08/31 00:17:27;;;;;;;6.70;3.43;;;;;;;;;;5044658;28;20226;-84
2023/08/31 00:19:55;;;;;;;3.87;2.90;;;;;;;;;;5045675;28;20229;-84
2023/08/31 00:22:22;;;;;;;3.23;2.63;;;;;;;;;;5038979;28;20688;-84
2023/08/31 00:24:51;;;;;;;4.70;3.13;;;;;;;;;;5041858;28;20302;-84
2023/08/31 00:27:18;;;;;;;5.30;3.40;;;;;;;;;;5043962;28;20237;-84
2023/08/31 00:29:49;;;;;;;3.40;3.10;;;;;;;;;;5042542;28;20206;-84
2023/08/31 00:32:16;;;;;;;7.37;3.67;;;;;;;;;;5039023;28;20284;-85
2023/08/31 00:34:43;;;;;;;3.33;3.03;;;;;;;;;;5040300;28;20217;-84
2023/08/31 00:37:11;;;;;;;4.20;3.17;;;;;;;;;;5039780;28;20226;-85
2023/08/31 00:39:38;;;;;;;4.73;2.87;;;;;;;;;;5039728;28;20214;-84
2023/08/31 00:42:06;;;;;;;6.60;2.77;;;;;;;;;;5038938;28;20250;-84
2023/08/31 00:44:33;;;;;;;5.10;3.20;;;;;;;;;;5040357;28;20207;-85
2023/08/31 00:47:00;;;;;;;6.33;3.60;;;;;;;;;;5043639;28;20769;-84
2023/08/31 00:49:27;;;;;;;4.00;3.60;;;;;;;;;;5043140;28;20203;-84
2023/08/31 00:51:54;;;;;;;4.77;3.20;;;;;;;;;;5042275;28;20231;-84
2023/08/31 00:54:22;;;;;;;4.90;3.33;;;;;;;;;;5044566;28;20203;-84
2023/08/31 00:56:53;;;;;;;3.10;2.70;;;;;;;;;;5049193;28;20233;-84
2023/08/31 00:59:21;;;;;;;3.50;3.00;;;;;;;;;;5050865;28;20222;-85
2023/08/31 01:01:51;;;;;;;4.37;2.93;;;;;;;;;;5053543;28;20261;-85
2023/08/31 01:04:21;;;;;;;4.70;3.07;;;;;;;;;;5054541;28;20221;-85
2023/08/31 01:06:53;;;;;;;3.47;3.10;;;;;;;;;;5051378;28;20291;-85
2023/08/31 01:09:26;;;;;;;4.03;3.27;;;;;;;;;;5058065;28;20210;-85
2023/08/31 01:11:58;;;;;;;4.83;3.20;;;;;;;;;;5042101;28;20226;-85
2023/08/31 01:14:26;;;;;;;3.80;3.20;;;;;;;;;;5050457;28;20217;-84
2023/08/31 01:16:54;;;;;;;3.70;3.23;;;;;;;;;;5042176;28;20234;-85
2023/08/31 01:19:29;;;;;;;6.33;3.50;;;;;;;;;;5042622;28;20788;-85
2023/08/31 01:21:59;;;;;;;5.83;3.27;;;;;;;;;;5041944;28;20230;-84
2023/08/31 01:24:28;;;;;;;3.03;2.80;;;;;;;;;;5042002;28;20202;-84
2023/08/31 01:26:55;;;;;;;4.17;3.13;;;;;;;;;;5041806;28;20234;-84
2023/08/31 01:29:22;;;;;;;3.90;3.40;;;;;;;;;;5048724;28;20210;-84
2023/08/31 01:31:49;;;;;;;4.20;3.30;;;;;;;;;;5044088;28;20230;-84
2023/08/31 01:34:16;;;;;;;4.70;3.30;;;;;;;;;;5045067;28;20211;-84
2023/08/31 01:36:45;;;;;;;3.90;3.40;;;;;;;;;;5042934;28;20230;-85
2023/08/31 01:39:14;;;;;;;3.77;3.30;;;;;;;;;;5042251;28;20692;-85
2023/08/31 01:41:45;;;;;;;4.90;3.50;;;;;;;;;;5042735;28;20236;-85
2023/08/31 01:44:14;;;;;;;5.93;3.67;;;;;;;;;;5050575;28;20210;-84
2023/08/31 01:46:42;;;;;;;5.50;3.50;;;;;;;;;;5040023;28;20321;-84
2023/08/31 01:49:11;;;;;;;4.03;3.50;;;;;;;;;;5045005;28;20210;-84
2023/08/31 01:51:38;;;;;;;4.07;3.67;;;;;;;;;;5045113;28;20230;-84
2023/08/31 01:54:05;;;;;;;4.97;3.57;;;;;;;;;;5039889;28;20542;-84
2023/08/31 01:56:32;;;;;;;3.93;3.53;;;;;;;;;;5036422;28;20234;-84
2023/08/31 01:59:01;;;;;;;5.70;3.80;;;;;;;;;;5041790;28;20230;-84
2023/08/31 02:01:29;;;;;;;3.60;3.27;;;;;;;;;;5040368;28;20230;-84
2023/08/31 02:03:56;;;;;;;3.93;3.60;;;;;;;;;;5044768;28;20252;-84
2023/08/31 02:06:23;;;;;;;4.13;3.60;;;;;;;;;;5044885;28;20238;-84
2023/08/31 02:08:50;;;;;;;4.77;3.73;;;;;;;;;;5042775;28;20202;-84
2023/08/31 02:11:17;;;;;;;5.77;4.00;;;;;;;;;;5042649;28;20234;-84
2023/08/31 02:13:44;;;;;;;5.23;3.87;;;;;;;;;;5052430;28;20209;-85
2023/08/31 02:16:12;;;;;;;5.33;4.43;;;;;;;;;;5036333;28;20238;-85
2023/08/31 02:18:39;;;;;;;4.50;4.10;;;;;;;;;;5047145;28;20214;-84
2023/08/31 02:21:07;;;;;;;4.67;3.93;;;;;;;;;;5041188;28;20233;-85
2023/08/31 02:23:34;;;;;;;5.37;3.70;;;;;;;;;;5044624;28;20239;-84
2023/08/31 02:26:01;;;;;;;4.70;3.90;;;;;;;;;;5036293;28;20233;-85
2023/08/31 02:28:28;;;;;;;6.47;4.03;;;;;;;;;;5041324;28;20203;-84
2023/08/31 02:31:02;;;;;;;5.30;4.17;;;;;;;;;;5043029;28;20225;-84
2023/08/31 02:33:31;;;;;;;7.47;4.10;;;;;;;;;;5044254;28;20206;-84
2023/08/31 02:35:58;;;;;;;4.03;3.63;;;;;;;;;;5042975;28;20234;-84
2023/08/31 02:38:26;;;;;;;5.73;3.80;;;;;;;;;;5037561;28;20203;-84
2023/08/31 02:40:53;;;;;;;4.60;3.57;;;;;;;;;;5042623;28;20322;-84
2023/08/31 02:43:20;;;;;;;4.63;3.67;;;;;;;;;;5042021;28;20210;-84
2023/08/31 02:45:47;;;;;;;4.33;3.93;;;;;;;;;;5044444;28;20280;-84
2023/08/31 02:48:14;;;;;;;3.60;3.33;;;;;;;;;;5040634;28;20223;-85
2023/08/31 02:50:43;;;;;;;7.00;3.80;;;;;;;;;;5044055;28;20571;-85
2023/08/31 02:53:10;;;;;;;4.20;3.80;;;;;;;;;;5040597;28;20210;-84
2023/08/31 02:55:37;;;;;;;5.97;4.00;;;;;;;;;;5046584;28;20265;-85
2023/08/31 02:58:04;;;;;;;6.20;3.80;;;;;;;;;;5041439;28;20318;-85
2023/08/31 03:00:33;;;;;;;4.70;3.97;;;;;;;;;;5045651;28;20238;-84
2023/08/31 03:03:00;;;;;;;3.80;3.37;;;;;;;;;;5040697;28;20206;-85
2023/08/31 03:05:27;;;;;;;4.73;3.73;;;;;;;;;;5046955;28;20237;-84
2023/08/31 03:07:56;;;;;;;5.57;3.87;;;;;;;;;;5040694;28;20230;-84
2023/08/31 03:10:24;;;;;;;4.03;3.63;;;;;;;;;;5039828;28;20245;-84
2023/08/31 03:12:51;;;;;;;5.90;3.87;;;;;;;;;;5042172;28;20222;-85
2023/08/31 03:15:18;;;;;;;5.47;4.27;;;;;;;;;;5043862;28;20226;-84
2023/08/31 03:17:45;;;;;;;5.77;4.50;;;;;;;;;;5048452;28;20228;-84
2023/08/31 03:20:12;;;;;;;7.00;4.37;;;;;;;;;;5042135;28;20202;-84
2023/08/31 03:22:39;;;;;;;5.10;4.60;;;;;;;;;;5038456;28;20214;-84
2023/08/31 03:25:08;;;;;;;8.97;4.83;;;;;;;;;;5048351;28;20202;-85
2023/08/31 03:27:35;;;;;;;8.10;4.90;;;;;;;;;;5038800;28;20234;-84
2023/08/31 03:30:03;;;;;;;7.27;4.70;;;;;;;;;;5039314;28;20202;-84
2023/08/31 03:32:30;;;;;;;8.47;4.93;;;;;;;;;;5040301;28;20742;-84
2023/08/31 03:34:57;;;;;;;6.17;5.00;;;;;;;;;;5041688;28;20233;-84
2023/08/31 03:37:25;;;;;;;6.87;5.23;;;;;;;;;;5040414;28;20223;-84
2023/08/31 03:39:52;;;;;;;7.43;5.43;;;;;;;;;;5044374;28;20202;-84
2023/08/31 03:42:20;;;;;;;6.43;5.27;;;;;;;;;;5038012;28;20230;-84
2023/08/31 03:44:47;;;;;;;7.20;6.33;;;;;;;;;;5043302;28;20214;-85
2023/08/31 03:47:14;;;;;;;8.43;5.60;;;;;;;;;;5038322;28;20226;-84
2023/08/31 03:49:41;;;;;;;7.87;5.67;;;;;;;;;;5040232;28;20676;-84
2023/08/31 03:52:08;;;;;;;8.53;5.80;;;;;;;;;;5042858;28;20746;-84
2023/08/31 03:54:35;;;;;;;8.27;5.70;;;;;;;;;;5040259;28;20207;-84
2023/08/31 03:57:03;;;;;;;7.30;6.07;;;;;;;;;;5044302;28;20233;-84
2023/08/31 03:59:31;;;;;;;7.83;6.03;;;;;;;;;;5039812;28;20214;-84
2023/08/31 04:01:59;;;;;;;6.67;5.80;;;;;;;;;;5041619;28;20225;-84
2023/08/31 04:04:26;;;;;;;7.63;6.70;;;;;;;;;;5039686;28;20677;-84
2023/08/31 04:06:53;;;;;;;9.40;6.83;;;;;;;;;;5039626;28;20230;-88
2023/08/31 04:09:20;;;;;;;7.70;6.97;;;;;;;;;;5045883;28;20228;-88
2023/08/31 04:11:47;;;;;;;10.80;6.97;;;;;;;;;;5049630;28;20722;-86
2023/08/31 04:14:14;;;;;;;9.27;6.83;;;;;;;;;;5034254;28;20198;-86
2023/08/31 04:16:42;;;;;;;10.13;7.07;;;;;;;;;;5042780;28;20222;-85
2023/08/31 04:19:09;;;;;;;10.00;6.77;;;;;;;;;;5039594;28;20685;-87
2023/08/31 04:21:37;;;;;;;7.80;7.00;;;;;;;;;;5042952;28;20238;-86
2023/08/31 04:24:05;;;;;;;11.47;7.87;;;;;;;;;;5043147;28;20657;-87
2023/08/31 04:26:32;;;;;;;8.30;7.10;;;;;;;;;;5042843;28;20237;-87
2023/08/31 04:28:59;;;;;;;7.37;6.67;;;;;;;;;;5045607;28;20576;-87
2023/08/31 04:31:26;;;;;;;9.57;7.00;;;;;;;;;;5043479;28;20731;-87
2023/08/31 04:33:55;;;;;;;7.40;6.70;;;;;;;;;;5041959;28;20689;-86
2023/08/31 04:36:21;;;;;;;8.93;7.50;;;;;;;;;;5046151;28;20309;-87
2023/08/31 04:38:48;;;;;;;9.13;7.13;;;;;;;;;;5050767;28;20687;-86
2023/08/31 04:41:16;;;;;;;8.10;7.10;;;;;;;;;;5042479;28;20276;-87
2023/08/31 04:43:43;;;;;;;9.50;7.27;;;;;;;;;;5043274;28;20213;-88
2023/08/31 04:46:10;;;;;;;7.57;6.57;;;;;;;;;;5041127;28;20233;-86
2023/08/31 04:48:39;;;;;;;8.73;7.07;;;;;;;;;;5050037;28;20375;-86
2023/08/31 04:51:07;;;;;;;9.03;7.10;;;;;;;;;;5037598;28;20257;-86
2023/08/31 04:53:34;;;;;;;8.00;6.80;;;;;;;;;;5046333;28;20213;-86
2023/08/31 04:56:02;;;;;;;7.40;6.37;;;;;;;;;;5042018;28;20230;-86
2023/08/31 04:58:29;;;;;;;8.53;6.17;;;;;;;;;;5043121;28;20202;-86
2023/08/31 05:00:56;;;;;;;9.83;6.27;;;;;;;;;;5042269;28;20616;-85
2023/08/31 05:03:23;;;;;;;9.40;6.87;;;;;;;;;;5042962;28;20203;-87
2023/08/31 05:05:50;;;;;;;6.43;5.77;;;;;;;;;;5050155;28;20245;-86
2023/08/31 05:08:18;;;;;;;8.17;6.07;;;;;;;;;;5045683;28;20226;-87
2023/08/31 05:10:46;;;;;;;6.70;6.03;;;;;;;;;;5038183;28;20245;-85
2023/08/31 05:13:13;;;;;;;6.33;5.60;;;;;;;;;;5046204;28;20210;-85
2023/08/31 05:15:40;;;;;;;10.23;6.23;;;;;;;;;;5045624;28;20442;-86
2023/08/31 05:18:08;;;;;;;6.60;5.00;;;;;;;;;;5042440;28;20215;-85
2023/08/31 05:20:35;;;;;;;7.10;4.73;;;;;;;;;;5041868;28;20281;-85
2023/08/31 05:23:03;;;;;;;5.93;5.33;;;;;;;;;;5044447;28;20612;-85
2023/08/31 05:25:31;;;;;;;5.60;5.07;;;;;;;;;;5045417;28;20315;-85
2023/08/31 05:27:58;;;;;;;6.57;5.33;;;;;;;;;;5043558;28;20229;-85
2023/08/31 05:30:25;;;;;;;8.03;4.80;;;;;;;;;;5039165;28;20229;-85
2023/08/31 05:32:52;;;;;;;6.60;4.27;;;;;;;;;;5043271;28;20217;-85
2023/08/31 05:35:25;;;;;;;7.40;4.70;;;;;;;;;;5038454;28;20233;-85
2023/08/31 05:37:52;;;;;;;6.47;4.43;;;;;;;;;;5044288;28;20222;-85
2023/08/31 05:40:19;;;;;;;8.30;4.80;;;;;;;;;;5037888;28;20233;-86
2023/08/31 05:42:47;;;;;;;5.50;4.73;;;;;;;;;;5045226;28;20210;-84
2023/08/31 05:45:15;;;;;;;8.40;5.37;;;;;;;;;;5041668;28;20242;-85
2023/08/31 05:47:42;;;;;;;6.57;5.63;;;;;;;;;;5041893;28;20688;-87
2023/08/31 05:50:09;;;;;;;8.13;5.80;;;;;;;;;;5044537;28;20204;-84
2023/08/31 05:52:37;;;;;;;7.93;5.70;;;;;;;;;;5045483;28;20292;-85
2023/08/31 05:55:04;;;;;;;9.77;5.83;;;;;;;;;;5034121;28;20211;-84
2023/08/31 05:57:32;;;;;;;7.27;5.83;;;;;;;;;;5041706;28;20231;-86
2023/08/31 06:00:00;;;;;;;6.57;5.67;;;;;;;;;;5049435;28;20702;-84
2023/08/31 06:02:28;;;;;;;10.30;6.30;;;;;;;;;;5041964;28;20584;-85
2023/08/31 06:04:56;;;;;;;8.97;5.33;;;;;;;;;;5041311;28;20680;-86
2023/08/31 06:07:23;;;;;;;6.03;5.40;;;;;;;;;;5041621;28;20250;-86
2023/08/31 06:09:50;;;;;;;9.53;5.57;;;;;;;;;;5041888;28;20206;-85
2023/08/31 06:12:17;;;;;;;11.40;8.13;;;;;;;;;;5048595;28;20233;-85
2023/08/31 06:14:44;;;;;;;6.80;5.43;;;;;;;;;;5041710;28;20218;-85
2023/08/31 06:17:13;;;;;;;6.60;5.10;;;;;;;;;;5044229;28;20230;-86
2023/08/31 06:19:40;;;;;;;7.13;4.47;;;;;;;;;;5044914;28;20676;-86
2023/08/31 06:22:07;;;;;;;6.50;4.23;;;;;;;;;;5044179;28;20729;-85
2023/08/31 06:24:34;;;;;;;6.17;4.23;;;;;;;;;;5044823;28;20210;-84
2023/08/31 06:27:02;;;;;;;4.07;3.53;;;;;;;;;;5042099;28;20234;-85
2023/08/31 06:29:29;;;;;;;5.47;3.53;;;;;;;;;;5033827;28;20223;-84
2023/08/31 06:31:56;;;;;;;3.90;3.50;;;;;;;;;;5038835;28;20246;-85
2023/08/31 06:34:25;;;;;;;6.00;3.87;;;;;;;;;;5032213;28;20211;-85
2023/08/31 06:36:52;;;;;;;5.60;3.53;;;;;;;;;;5032447;28;20257;-85
2023/08/31 06:39:19;;;;;;;6.57;3.80;;;;;;;;;;5044139;28;20202;-85
2023/08/31 06:41:47;;;;;;;7.17;3.43;;;;;;;;;;5038819;28;20234;-86
2023/08/31 06:44:14;;;;;;;4.63;3.37;;;;;;;;;;5041623;28;20226;-84
2023/08/31 06:46:41;;;;;;;4.20;3.20;;;;;;;;;;5049479;28;20226;-88
2023/08/31 06:49:09;;;;;;;3.83;3.33;;;;;;;;;;5043599;28;20209;-84
2023/08/31 06:51:37;;;;;;;3.40;3.10;;;;;;;;;;5045337;28;20234;-84
2023/08/31 06:54:06;;;;;;;5.33;3.27;;;;;;;;;;5040022;28;20206;-84
2023/08/31 06:56:33;;;;;;;6.30;3.33;;;;;;;;;;5044735;28;20316;-84
2023/08/31 06:59:01;;;;;;;6.50;3.57;;;;;;;;;;5033003;28;20229;-88
2023/08/31 07:01:28;;;;;;;4.10;3.10;;;;;;;;;;5045507;28;20227;-85
2023/08/31 07:03:55;;;;;;;5.83;3.00;;;;;;;;;;5032561;28;20730;-85
2023/08/31 07:06:22;;;;;;;5.40;3.00;;;;;;;;;;5050516;28;20572;-85
2023/08/31 07:08:50;;;;;;;3.07;2.50;;;;;;;;;;5042913;28;20723;-85
2023/08/31 07:11:18;;;;;;;4.33;2.90;;;;;;;;;;5038852;28;20237;-85
2023/08/31 07:13:45;;;;;;;5.03;2.93;;;;;;;;;;5039673;28;20221;-85
2023/08/31 07:16:12;;;;;;;5.27;2.70;;;;;;;;;;5041712;28;20241;-85
2023/08/31 07:18:39;;;;;;;5.17;2.60;;;;;;;;;;5037010;28;20257;-84
2023/08/31 07:21:06;;;;;;;5.50;2.57;;;;;;;;;;5030187;28;20235;-85
2023/08/31 07:23:33;;;;;;;5.07;3.30;;;;;;;;;;5031005;28;20215;-84
2023/08/31 07:26:04;;;;;;;3.67;2.70;;;;;;;;;;5038463;28;20234;-84
2023/08/31 07:28:31;;;;;;;3.80;2.97;;;;;;;;;;5039481;28;20226;-84
2023/08/31 07:31:04;;;;;;;3.20;2.40;;;;;;;;;;5030043;28;20234;-86
2023/08/31 07:33:32;;;;;;;5.17;2.70;;;;;;;;;;5036801;28;20209;-84
2023/08/31 07:36:00;;;;;;;4.10;2.50;;;;;;;;;;5032817;28;20611;-86
2023/08/31 07:38:27;;;;;;;6.63;2.63;;;;;;;;;;5045145;28;20667;-85
2023/08/31 07:40:54;;;;;;;4.87;2.30;;;;;;;;;;5053472;28;20244;-85
2023/08/31 07:43:22;;;;;;;7.00;3.80;;;;;;;;;;5049884;28;20232;-84
2023/08/31 07:45:50;;;;;;;7.23;3.07;;;;;;;;;;5043124;28;20233;-83
2023/08/31 07:48:17;;;;;;;3.87;2.57;;;;;;;;;;5044531;28;20227;-86
2023/08/31 07:50:44;;;;;;;2.73;2.50;;;;;;;;;;5037027;28;20316;-84
2023/08/31 07:53:12;;;;;;;4.73;2.70;;;;;;;;;;5040243;28;20225;-84
2023/08/31 07:55:39;;;;;;;6.40;2.40;;;;;;;;;;5048890;28;20652;-83
2023/08/31 07:58:06;;;;;;;4.23;2.20;;;;;;;;;;5033760;28;20218;-85
2023/08/31 08:00:38;;;;;;;3.53;2.00;;;;;;;;;;5045854;28;20240;-85
2023/08/31 08:03:05;;;;;;;5.87;2.30;;;;;;;;;;5042922;28;20217;-86
2023/08/31 08:05:32;;;;;;;3.20;1.87;;;;;;;;;;5042150;28;20233;-84
2023/08/31 08:07:59;;;;;;;3.20;2.05;;;;;;;;;;5038096;28;20591;-84
2023/08/31 08:10:26;;;;;;;4.63;2.20;;;;;;;;;;5040904;28;20258;-85
2023/08/31 08:12:56;;;;;;;4.60;2.17;;;;;;;;;;5038945;28;20210;-85
2023/08/31 08:15:23;;;;;;;3.67;2.10;;;;;;;;;;5037442;28;20312;-84
2023/08/31 08:17:53;;;;;;;6.03;2.45;;;;;;;;;;5035986;28;20218;-85
2023/08/31 08:20:20;;;;;;;5.22;2.35;;;;;;;;;;5038130;28;20631;-85
2023/08/31 08:22:47;;;;;;;4.67;2.10;;;;;;;;;;5038156;28;20217;-85
2023/08/31 08:25:14;;;;;;;2.87;2.10;;;;;;;;;;5042242;28;20260;-84
2023/08/31 08:27:41;;;;;;;7.05;2.08;;;;;;;;;;5040181;28;20325;-84
2023/08/31 08:30:09;;;;;;;2.85;2.10;;;;;;;;;;5043825;28;20206;-87
2023/08/31 08:32:36;;;;;;;3.63;2.27;;;;;;;;;;5046236;28;20289;-87
2023/08/31 08:35:05;;;;;;;3.73;1.87;;;;;;;;;;5045661;28;20217;-87
2023/08/31 08:37:33;;;;;;;3.58;2.00;;;;;;;;;;5039756;28;20222;-87
2023/08/31 08:40:00;;;;;;;4.93;2.05;;;;;;;;;;5036991;28;20210;-85
2023/08/31 08:42:27;;;;;;;7.28;2.20;;;;;;;;;;5043357;28;20195;-86
2023/08/31 08:44:54;;;;;;;3.10;2.00;;;;;;;;;;5044452;28;20206;-85
2023/08/31 08:47:21;;;;;;;7.80;2.30;;;;;;;;;;5034032;28;20244;-86
2023/08/31 08:49:49;;;;;;;4.68;2.20;;;;;;;;;;5044520;28;20207;-86
2023/08/31 08:52:18;;;;;;;3.17;1.83;;;;;;;;;;5033683;28;20248;-85
2023/08/31 08:54:45;;;;;;;4.03;2.22;;;;;;;;;;5046391;28;20692;-86
2023/08/31 08:57:12;;;;;;;3.35;2.00;;;;;;;;;;5034262;28;20234;-85
2023/08/31 08:59:39;;;;;;;2.20;1.90;;;;;;;;;;5043070;28;20229;-88
2023/08/31 09:02:07;;;;;;;2.13;1.80;;;;;;;;;;5038509;28;20253;-85
2023/08/31 09:04:34;;;;;;;2.72;2.00;;;;;;;;;;5052096;28;20206;-86
2023/08/31 09:07:02;;;;;;;2.38;1.75;;;;;;;;;;5054471;28;20606;-86
2023/08/31 09:09:31;;;;;;;4.68;2.25;;;;;;;;;;5041368;28;20568;-85
2023/08/31 09:12:07;;;;;;;3.00;2.05;;;;;;;;;;5041398;28;20789;-86
2023/08/31 09:14:34;;;;;;;2.50;1.90;;;;;;;;;;5036921;28;20210;-87
2023/08/31 09:17:02;;;;;;;1.77;1.63;;;;;;;;;;5037899;28;20230;-89
2023/08/31 09:19:29;;;;;;;4.05;1.90;;;;;;;;;;5038394;28;20231;-87
2023/08/31 09:21:57;;;;;;;4.60;1.92;;;;;;;;;;5035838;28;20234;-86
2023/08/31 09:24:25;;;;;;;3.05;1.85;;;;;;;;;;5039410;28;20942;-87
2023/08/31 09:26:55;;;;;;;2.67;1.73;;;;;;;;;;5056495;28;20240;-87
2023/08/31 09:29:22;;;;;;;3.92;1.90;;;;;;;;;;5044825;28;20237;-90
2023/08/31 09:31:49;;;;;;;5.75;2.00;;;;;;;;;;5037353;28;20231;-87
2023/08/31 09:34:16;;;;;;;2.92;1.83;;;;;;;;;;5045612;28;20621;-87
2023/08/31 09:36:44;;;;;;;2.88;1.48;;;;;;;;;;5051624;28;20230;-86
2023/08/31 09:39:12;;;;;;;2.10;1.90;;;;;;;;;;5040418;28;20212;-87
2023/08/31 09:41:55;;;;;;;4.07;1.92;;;;;;;;;;5043012;28;20365;-87
2023/08/31 09:44:22;;;;;;;4.40;1.95;;;;;;;;;;5037929;28;20638;-86
2023/08/31 09:46:49;;;;;;;6.20;1.80;;;;;;;;;;5043238;28;20233;-87
2023/08/31 09:49:17;;;;;;;3.50;2.00;;;;;;;;;;5046861;28;20602;-88
2023/08/31 09:51:45;;;;;;;4.50;1.80;;;;;;;;;;5046580;28;20226;-87
2023/08/31 09:54:14;;;;;;;2.85;1.85;;;;;;;;;;5038067;28;20241;-85
2023/08/31 09:56:43;;;;;;;2.67;1.80;;;;;;;;;;5043018;28;20245;-86
2023/08/31 09:59:11;;;;;;;4.40;1.98;;;;;;;;;;5052673;28;20213;-86
2023/08/31 10:01:39;;;;;;;3.92;2.38;;;;;;;;;;5041263;28;20280;-85
2023/08/31 10:04:08;;;;;;;3.60;2.60;;;;;;;;;;5045287;28;20229;-86
2023/08/31 10:06:36;;;;;;;3.70;2.05;;;;;;;;;;5045646;28;20230;-83
2023/08/31 10:09:03;;;;;;;6.30;2.25;;;;;;;;;;5039995;28;20226;-80
2023/08/31 10:11:31;;;;;;;4.20;1.90;;;;;;;;;;5030851;28;20279;-80
2023/08/31 10:13:59;;;;;;;2.90;1.80;;;;;;;;;;5031860;28;20206;-81
2023/08/31 10:16:28;;;;;;;4.72;1.70;;;;;;;;;;5030726;28;20241;-81
2023/08/31 10:18:56;;;;;;;3.90;1.70;;;;;;;;;;5035375;28;20688;-81
2023/08/31 10:21:23;;;;;;;3.85;1.65;;;;;;;;;;5050424;28;20251;-82
2023/08/31 10:23:51;;;;;;;1.83;1.63;;;;;;;;;;5041400;28;20615;-81
2023/08/31 10:26:25;;;;;;;3.40;1.83;;;;;;;;;;5037294;28;20234;-81
2023/08/31 10:28:52;;;;;;;2.85;1.70;;;;;;;;;;5029429;28;20595;-81
2023/08/31 10:31:20;;;;;;;3.13;1.75;;;;;;;;;;5028606;28;20244;-82
2023/08/31 10:33:49;;;;;;;2.65;1.45;;;;;;;;;;5029785;28;20210;-81
2023/08/31 10:36:16;;;;;;;3.97;1.90;;;;;;;;;;5044546;28;20318;-82
2023/08/31 10:38:46;;;;;;;2.13;1.52;;;;;;;;;;5039008;28;20673;-82
2023/08/31 10:41:21;;;;;;;3.28;2.15;;;;;;;;;;5048266;28;20234;-82
2023/08/31 10:43:50;;;;;;;1.80;1.58;;;;;;;;;;5047187;28;20210;-82
2023/08/31 10:46:17;;;;;;;1.92;1.75;;;;;;;;;;5047218;28;20288;-81
2023/08/31 10:48:52;;;;;;;3.28;1.70;;;;;;;;;;5037804;28;20230;-81
2023/08/31 10:51:20;;;;;;;2.85;1.63;;;;;;;;;;5028028;28;20230;-82
2023/08/31 10:53:47;;;;;;;2.75;1.40;;;;;;;;;;5046825;28;20575;-81
2023/08/31 10:56:16;;;;;;;5.18;2.30;;;;;;;;;;5048832;28;20230;-81
2023/08/31 10:58:44;;;;;;;2.72;2.03;;;;;;;;;;5047399;28;20685;-81
2023/08/31 11:01:11;;;;;;;2.05;1.40;;;;;;;;;;5029538;28;20235;-82
2023/08/31 11:03:53;;;;;;;3.17;1.85;;;;;;;;;;5034030;28;20215;-80
2023/08/31 11:06:24;;;;;;;2.75;1.70;;;;;;;;;;5037944;28;20242;-81
2023/08/31 11:08:52;;;;;;;2.28;1.45;;;;;;;;;;5035129;28;20269;-81
2023/08/31 11:11:21;;;;;;;2.72;1.58;;;;;;;;;;5034755;28;20234;-80
2023/08/31 11:13:48;;;;;;;3.00;1.65;;;;;;;;;;5027353;28;20591;-82
2023/08/31 11:16:15;;;;;;;2.15;1.95;;;;;;;;;;5028905;28;20711;-82
2023/08/31 11:18:42;;;;;;;2.95;1.70;;;;;;;;;;5037721;28;20191;-81
2023/08/31 11:21:09;;;;;;;2.55;1.45;;;;;;;;;;5042323;28;20445;-81
2023/08/31 11:23:38;;;;;;;3.33;1.58;;;;;;;;;;5044361;28;20211;-82
2023/08/31 11:26:05;;;;;;;1.85;1.73;;;;;;;;;;5040462;28;20226;-81
2023/08/31 11:28:35;;;;;;;2.80;1.85;;;;;;;;;;5041059;28;20240;-82
2023/08/31 11:31:03;;;;;;;6.80;1.73;;;;;;;;;;5041401;28;20327;-83
2023/08/31 11:33:33;;;;;;;2.60;1.42;;;;;;;;;;5033008;28;20214;-83
2023/08/31 11:36:00;;;;;;;4.10;1.95;;;;;;;;;;5042540;28;20513;-83
2023/08/31 11:38:28;;;;;;;2.90;1.88;;;;;;;;;;5038465;28;20692;-83
2023/08/31 11:41:01;;;;;;;2.75;1.88;;;;;;;;;;5037798;28;20235;-83
2023/08/31 11:43:28;;;;;;;2.28;1.63;;;;;;;;;;5032614;28;20683;-85
2023/08/31 11:45:55;;;;;;;4.35;1.55;;;;;;;;;;5035088;28;20238;-83
2023/08/31 11:48:22;;;;;;;2.08;1.35;;;;;;;;;;5038622;28;20225;-83
2023/08/31 11:50:49;;;;;;;2.85;1.63;;;;;;;;;;5037294;28;20235;-83
2023/08/31 11:53:17;;;;;;;3.83;1.80;;;;;;;;;;5038803;28;20209;-83
2023/08/31 11:55:53;;;;;;;1.85;1.48;;;;;;;;;;5036723;28;20241;-83
2023/08/31 11:58:24;;;;;;;2.17;1.50;;;;;;;;;;5038460;28;20230;-83
2023/08/31 12:00:56;;;;;;;2.70;1.92;;;;;;;;;;5037661;28;20315;-83
2023/08/31 12:03:23;;;;;;;1.63;1.27;;;;;;;;;;5044079;28;20198;-85
2023/08/31 12:05:51;;;;;;;2.00;1.60;;;;;;;;;;5040705;28;20321;-81
2023/08/31 12:08:25;;;;;;;2.30;1.30;;;;;;;;;;5031609;28;20242;-83
2023/08/31 12:10:52;;;;;;;2.17;1.63;;;;;;;;;;5039319;28;20241;-85
2023/08/31 12:13:19;;;;;;;2.03;1.67;;;;;;;;;;5029984;28;20214;-83
2023/08/31 12:15:47;;;;;;;3.25;1.45;;;;;;;;;;5035360;28;20599;-84
2023/08/31 12:18:15;;;;;;;1.63;1.50;;;;;;;;;;5041946;28;20249;-84
2023/08/31 12:20:46;;;;;;;2.22;1.50;;;;;;;;;;5044605;28;20277;-84
2023/08/31 12:23:14;;;;;;;2.67;1.70;;;;;;;;;;5030159;28;20209;-83
2023/08/31 12:25:46;;;;;;;1.83;1.60;;;;;;;;;;5031409;28;20744;-83
2023/08/31 12:28:13;;;;;;;1.92;1.67;;;;;;;;;;5036977;28;20222;-83
2023/08/31 12:30:43;;;;;;;1.73;1.45;;;;;;;;;;5037010;28;20227;-83
2023/08/31 12:33:12;;;;;;;2.75;1.73;;;;;;;;;;5030377;28;20210;-83
2023/08/31 12:35:39;;;;;;;3.25;1.88;;;;;;;;;;5037653;28;20322;-83
2023/08/31 12:38:07;;;;;;;1.90;1.70;;;;;;;;;;5030581;28;20783;-83
2023/08/31 12:40:34;;;;;;;1.63;1.50;;;;;;;;;;5029942;28;20913;-83
2023/08/31 12:43:01;;;;;;;5.80;1.85;;;;;;;;;;5033640;28;20207;-82
2023/08/31 12:45:28;;;;;;;2.08;1.33;;;;;;;;;;5033957;28;20223;-82
2023/08/31 12:47:55;;;;;;;2.13;1.52;;;;;;;;;;5042928;28;20223;-83
2023/08/31 12:50:24;;;;;;;3.85;1.73;;;;;;;;;;5032940;28;20326;-84
2023/08/31 12:52:51;;;;;;;2.97;1.92;;;;;;;;;;5042334;28;20233;-82
2023/08/31 12:55:18;;;;;;;2.05;1.60;;;;;;;;;;5034692;28;20234;-84
2023/08/31 12:57:45;;;;;;;2.55;1.88;;;;;;;;;;5038757;28;20670;-83
2023/08/31 13:00:13;;;;;;;3.58;1.67;;;;;;;;;;5042194;28;20199;-81
2023/08/31 13:02:40;;;;;;;1.95;1.67;;;;;;;;;;5034713;28;20209;-80
2023/08/31 13:05:08;;;;;;;1.60;1.50;;;;;;;;;;5044211;28;20199;-82
2023/08/31 13:07:38;;;;;;;1.85;1.55;;;;;;;;;;5039868;28;20229;-85
2023/08/31 13:10:06;;;;;;;3.22;1.83;;;;;;;;;;5037131;28;20222;-83
2023/08/31 13:12:33;;;;;;;4.25;1.90;;;;;;;;;;5033066;28;20254;-82
2023/08/31 13:15:00;;;;;;;4.75;2.10;;;;;;;;;;5033543;28;20218;-84
2023/08/31 13:17:27;;;;;;;2.97;1.70;;;;;;;;;;5034020;28;20226;-83
2023/08/31 13:19:54;;;;;;;2.28;1.63;;;;;;;;;;5041304;28;20290;-85
2023/08/31 13:22:22;;;;;;;2.80;1.60;;;;;;;;;;5032760;28;20715;-83
2023/08/31 13:24:51;;;;;;;2.47;1.83;;;;;;;;;;5041884;28;20202;-83
2023/08/31 13:27:19;;;;;;;2.60;1.65;;;;;;;;;;5052721;28;20233;-84
2023/08/31 13:29:46;;;;;;;2.92;2.15;;;;;;;;;;5045809;28;20228;-87
2023/08/31 13:32:13;;;;;;;4.28;1.85;;;;;;;;;;5042833;28;20231;-84
2023/08/31 13:34:41;;;;;;;4.15;1.73;;;;;;;;;;5038060;28;20198;-84
2023/08/31 13:37:08;;;;;;;4.68;1.90;;;;;;;;;;5046127;28;20252;-84
2023/08/31 13:39:36;;;;;;;4.57;1.98;;;;;;;;;;5033522;28;20199;-84
2023/08/31 13:42:06;;;;;;;4.18;2.10;;;;;;;;;;5031315;28;20421;-83
2023/08/31 13:44:33;;;;;;;3.65;1.52;;;;;;;;;;5041030;28;20318;-83
2023/08/31 13:47:02;;;;;;;3.72;1.90;;;;;;;;;;5048598;28;20313;-84
2023/08/31 13:49:30;;;;;;;4.15;2.10;;;;;;;;;;5034873;28;20318;-83
2023/08/31 13:51:57;;;;;;;2.30;1.70;;;;;;;;;;5031240;28;20280;-83
2023/08/31 13:54:24;;;;;;;3.28;1.80;;;;;;;;;;5032433;28;20207;-84
2023/08/31 13:56:51;;;;;;;3.65;1.80;;;;;;;;;;5037734;28;20313;-85
2023/08/31 13:59:19;;;;;;;5.80;2.60;;;;;;;;;;5050350;28;20542;-85
2023/08/31 14:01:46;;;;;;;4.45;2.13;;;;;;;;;;5030790;28;20230;-84
2023/08/31 14:04:14;;;;;;;3.85;1.92;;;;;;;;;;5048885;28;20214;-82
2023/08/31 14:06:41;;;;;;;6.70;2.47;;;;;;;;;;5052057;28;20237;-82
2023/08/31 14:09:08;;;;;;;4.22;1.83;;;;;;;;;;5037494;28;20619;-82
2023/08/31 14:11:36;;;;;;;3.45;1.67;;;;;;;;;;5042030;28;20228;-85
2023/08/31 14:14:05;;;;;;;3.45;1.90;;;;;;;;;;5044486;28;20204;-82
2023/08/31 14:16:33;;;;;;;5.55;1.73;;;;;;;;;;5041750;28;20240;-83
2023/08/31 14:19:01;;;;;;;3.25;1.70;;;;;;;;;;5033164;28;20199;-83
2023/08/31 14:21:28;;;;;;;7.10;1.80;;;;;;;;;;5040169;28;20223;-82
2023/08/31 14:23:55;;;;;;;3.45;2.00;;;;;;;;;;5033184;28;20213;-83
2023/08/31 14:26:23;;;;;;;4.93;2.38;;;;;;;;;;5033234;28;20804;-85
2023/08/31 14:28:51;;;;;;;4.90;1.92;;;;;;;;;;5041130;28;20226;-81
2023/08/31 14:31:18;;;;;;;3.38;1.90;;;;;;;;;;5040724;28;20280;-84
2023/08/31 14:33:46;;;;;;;4.88;2.08;;;;;;;;;;5038405;28;20576;-83
2023/08/31 14:36:15;;;;;;;3.20;2.25;;;;;;;;;;5033920;28;20227;-84
2023/08/31 14:38:42;;;;;;;6.03;1.83;;;;;;;;;;5034088;28;20203;-83
2023/08/31 14:41:10;;;;;;;3.47;2.10;;;;;;;;;;5038415;28;20222;-83
2023/08/31 14:43:37;;;;;;;4.80;1.95;;;;;;;;;;5036661;28;20653;-82
2023/08/31 14:46:04;;;;;;;6.72;1.92;;;;;;;;;;5052992;28;20229;-84